createdAt,value
2023-01-29T00:00:12.395Z,4.28
2023-01-29T00:02:44.355Z,4.28
2023-01-29T00:05:27.546Z,4.32
2023-01-29T00:08:00.105Z,4.33
2023-01-29T00:10:32.076Z,4.32
2023-01-29T00:13:04.491Z,4.32
2023-01-29T00:15:36.512Z,4.32
2023-01-29T00:18:08.693Z,4.30
2023-01-29T00:20:44.094Z,4.37
2023-01-29T00:23:16.240Z,4.42
2023-01-29T00:25:48.367Z,4.43
2023-01-29T00:28:20.433Z,4.33
2023-01-29T00:30:52.379Z,4.34
2023-01-29T00:33:24.354Z,4.31
2023-01-29T00:35:57.502Z,4.40
2023-01-29T00:38:29.504Z,4.37
2023-01-29T00:41:31.575Z,4.12
2023-01-29T00:44:22.078Z,4.34
2023-01-29T00:46:54.830Z,4.32
2023-01-29T00:49:26.920Z,4.37
2023-01-29T00:52:17.352Z,4.27
2023-01-29T00:54:49.369Z,4.23
2023-01-29T00:57:22.628Z,4.32
2023-01-29T00:59:54.907Z,4.31
2023-01-29T01:02:46.305Z,4.36
2023-01-29T01:05:18.945Z,4.26
2023-01-29T01:07:54.141Z,4.27
2023-01-29T01:10:31.382Z,4.28
2023-01-29T01:13:08.113Z,4.22
2023-01-29T01:15:41.377Z,4.26
2023-01-29T01:18:15.532Z,4.26
2023-01-29T01:20:51.700Z,4.22
2023-01-29T01:23:23.608Z,4.27
2023-01-29T01:25:55.584Z,4.28
2023-01-29T01:28:28.912Z,4.20
2023-01-29T01:31:13.524Z,4.26
2023-01-29T01:33:45.604Z,4.31
2023-01-29T01:36:18.476Z,4.25
2023-01-29T01:38:50.649Z,4.35
2023-01-29T01:41:24.087Z,4.33
2023-01-29T01:44:00.459Z,4.25
2023-01-29T01:46:37.790Z,4.17
2023-01-29T01:49:16.094Z,4.12
2023-01-29T01:51:52.458Z,4.03
2023-01-29T01:54:29.086Z,3.90
2023-01-29T01:57:16.441Z,3.75
2023-01-29T01:59:59.273Z,3.77
2023-01-29T02:02:50.122Z,3.70
2023-01-29T02:05:41.060Z,3.65
2023-01-29T02:08:33.794Z,3.71
2023-01-29T02:11:07.385Z,3.73
2023-01-29T02:13:39.929Z,3.69
2023-01-29T02:16:11.922Z,3.58
2023-01-29T02:18:43.858Z,3.64
2023-01-29T02:21:44.465Z,3.58
2023-01-29T02:25:09.891Z,3.54
2023-01-29T02:28:39.851Z,3.50
2023-01-29T02:31:41.480Z,3.51
2023-01-29T02:34:53.371Z,3.51
2023-01-29T02:37:55.494Z,3.64
2023-01-29T02:40:50.827Z,3.61
2023-01-29T02:43:49.360Z,3.68
2023-01-29T02:46:42.411Z,3.58
2023-01-29T02:49:54.634Z,3.58
2023-01-29T02:52:44.718Z,3.58
2023-01-29T02:55:27.100Z,3.63
2023-01-29T02:58:36.350Z,3.60
2023-01-29T03:01:30.220Z,3.56
2023-01-29T03:04:09.604Z,3.62
2023-01-29T03:06:54.421Z,3.68
2023-01-29T03:09:31.716Z,3.74
2023-01-29T03:12:34.770Z,3.74
2023-01-29T03:15:19.153Z,3.73
2023-01-29T03:18:03.508Z,3.73
2023-01-29T03:20:53.864Z,3.68
2023-01-29T03:23:50.553Z,3.79
2023-01-29T03:26:43.920Z,3.80
2023-01-29T03:29:34.909Z,3.79
2023-01-29T03:32:08.198Z,3.75
2023-01-29T03:34:46.758Z,3.75
2023-01-29T03:37:37.310Z,3.64
2023-01-29T03:40:11.056Z,3.60
2023-01-29T03:43:11.110Z,3.59
2023-01-29T03:45:58.110Z,3.57
2023-01-29T03:48:54.557Z,3.63
2023-01-29T03:51:56.457Z,3.69
2023-01-29T03:54:40.642Z,3.76
2023-01-29T03:57:15.526Z,3.80
2023-01-29T04:00:02.018Z,3.82
2023-01-29T04:02:56.659Z,3.81
2023-01-29T04:05:39.673Z,3.72
2023-01-29T04:08:21.237Z,3.77
2023-01-29T04:10:59.212Z,3.74
2023-01-29T04:13:33.912Z,3.70
2023-01-29T04:16:13.917Z,3.67
2023-01-29T04:18:48.416Z,3.65
2023-01-29T04:21:21.221Z,3.64
2023-01-29T04:23:54.265Z,3.66
2023-01-29T04:27:09.713Z,3.56
2023-01-29T04:30:17.092Z,3.63
2023-01-29T04:33:00.974Z,3.70
2023-01-29T04:36:06.385Z,3.72
2023-01-29T04:39:11.006Z,3.69
2023-01-29T04:42:06.015Z,3.68
2023-01-29T04:45:16.987Z,3.77
2023-01-29T04:48:19.109Z,3.69
2023-01-29T04:51:15.789Z,3.70
2023-01-29T04:54:01.569Z,3.75
2023-01-29T04:56:53.256Z,3.74
2023-01-29T04:59:39.513Z,3.78
2023-01-29T05:02:13.651Z,3.82
2023-01-29T05:04:48.359Z,3.82
2023-01-29T05:07:22.609Z,3.79
2023-01-29T05:09:56.292Z,3.79
2023-01-29T05:12:31.153Z,3.82
2023-01-29T05:15:09.631Z,3.75
2023-01-29T05:17:42.577Z,3.81
2023-01-29T05:20:14.825Z,3.83
2023-01-29T05:22:48.815Z,3.79
2023-01-29T05:25:27.679Z,3.84
2023-01-29T05:28:14.144Z,3.83
2023-01-29T05:30:53.016Z,3.84
2023-01-29T05:33:29.296Z,3.81
2023-01-29T05:36:01.638Z,3.82
2023-01-29T05:38:33.608Z,3.85
2023-01-29T05:41:05.843Z,3.89
2023-01-29T05:43:37.828Z,3.95
2023-01-29T05:46:10.385Z,3.93
2023-01-29T05:48:42.341Z,3.93
2023-01-29T05:51:14.301Z,3.97
2023-01-29T05:53:46.345Z,3.89
2023-01-29T05:56:18.312Z,3.90
2023-01-29T05:58:50.359Z,3.93
2023-01-29T06:01:25.775Z,4.02
2023-01-29T06:03:57.700Z,4.09
2023-01-29T06:06:29.620Z,4.09
2023-01-29T06:09:01.597Z,4.08
2023-01-29T06:11:33.548Z,4.09
2023-01-29T06:14:05.681Z,4.09
2023-01-29T06:16:37.643Z,4.08
2023-01-29T06:19:09.588Z,3.98
2023-01-29T06:21:41.553Z,3.99
2023-01-29T06:24:13.603Z,4.12
2023-01-29T06:26:45.689Z,4.15
2023-01-29T06:29:17.650Z,4.21
2023-01-29T06:31:49.721Z,4.30
2023-01-29T06:34:21.711Z,4.32
2023-01-29T06:36:53.851Z,4.29
2023-01-29T06:39:25.851Z,4.25
2023-01-29T06:41:57.835Z,4.21
2023-01-29T06:44:29.798Z,4.21
2023-01-29T06:47:01.859Z,4.18
2023-01-29T06:49:33.883Z,4.17
2023-01-29T06:52:06.031Z,4.17
2023-01-29T06:54:37.970Z,4.12
2023-01-29T06:57:09.913Z,4.17
2023-01-29T06:59:41.834Z,4.19
2023-01-29T07:02:14.130Z,4.22
2023-01-29T07:04:46.132Z,4.21
2023-01-29T07:07:18.570Z,4.13
2023-01-29T07:09:50.563Z,4.26
2023-01-29T07:12:22.469Z,4.22
2023-01-29T07:14:54.418Z,4.20
2023-01-29T07:17:26.303Z,4.18
2023-01-29T07:19:58.239Z,4.18
2023-01-29T07:22:30.122Z,4.16
2023-01-29T07:25:02.034Z,4.14
2023-01-29T07:27:33.975Z,4.18
2023-01-29T07:30:07.018Z,4.16
2023-01-29T07:32:39.060Z,4.16
2023-01-29T07:35:11.541Z,4.16
2023-01-29T07:37:43.516Z,4.15
2023-01-29T07:40:15.978Z,4.16
2023-01-29T07:42:48.062Z,4.18
2023-01-29T07:45:20.030Z,4.21
2023-01-29T07:47:56.797Z,4.12
2023-01-29T07:50:28.859Z,3.98
2023-01-29T07:53:01.640Z,4.06
2023-01-29T07:55:33.904Z,4.14
2023-01-29T07:58:06.165Z,4.21
2023-01-29T08:00:38.235Z,4.23
2023-01-29T08:03:16.258Z,4.28
2023-01-29T08:05:48.596Z,4.28
2023-01-29T08:08:20.527Z,4.29
2023-01-29T08:10:52.451Z,4.31
2023-01-29T08:13:24.427Z,4.31
2023-01-29T08:16:01.284Z,4.27
2023-01-29T08:18:33.249Z,3.88
2023-01-29T08:21:05.560Z,4.26
2023-01-29T08:23:37.524Z,4.32
2023-01-29T08:26:09.733Z,4.36
2023-01-29T08:28:41.707Z,4.35
2023-01-29T08:31:16.328Z,4.33
2023-01-29T08:33:48.640Z,4.35
2023-01-29T08:36:20.538Z,4.31
2023-01-29T08:38:52.516Z,4.39
2023-01-29T08:41:24.476Z,4.35
2023-01-29T08:43:57.311Z,4.32
2023-01-29T08:46:29.294Z,4.31
2023-01-29T08:49:01.303Z,4.18
2023-01-29T08:51:33.253Z,4.26
2023-01-29T08:54:05.446Z,4.25
2023-01-29T08:56:37.456Z,4.26
2023-01-29T08:59:10.931Z,4.30
2023-01-29T09:01:42.927Z,4.32
2023-01-29T09:04:14.893Z,4.33
2023-01-29T09:06:46.850Z,4.36
2023-01-29T09:09:18.790Z,4.24
2023-01-29T09:11:50.736Z,4.40
2023-01-29T09:14:22.724Z,4.35
2023-01-29T09:16:54.732Z,4.26
2023-01-29T09:19:26.663Z,4.29
2023-01-29T09:21:58.855Z,4.31
2023-01-29T09:24:30.908Z,4.29
2023-01-29T09:27:02.943Z,4.29
2023-01-29T09:29:35.973Z,4.29
2023-01-29T09:32:08.083Z,4.31
2023-01-29T09:34:40.059Z,4.29
2023-01-29T09:37:12.001Z,4.34
2023-01-29T09:39:44.571Z,4.30
2023-01-29T09:42:30.683Z,4.26
2023-01-29T09:45:19.949Z,4.41
2023-01-29T09:47:55.946Z,4.43
2023-01-29T09:50:43.425Z,4.45
2023-01-29T09:53:20.516Z,4.51
2023-01-29T09:56:19.611Z,4.53
2023-01-29T09:58:51.868Z,4.59
2023-01-29T10:01:41.423Z,4.60
2023-01-29T10:04:47.134Z,4.62
2023-01-29T10:07:43.853Z,4.62
2023-01-29T10:10:47.596Z,4.68
2023-01-29T10:13:26.075Z,4.59
2023-01-29T10:16:27.411Z,4.69
2023-01-29T10:19:23.537Z,4.71
2023-01-29T10:22:34.047Z,4.60
2023-01-29T10:25:12.948Z,4.66
2023-01-29T10:27:55.114Z,4.67
2023-01-29T10:30:47.853Z,4.67
2023-01-29T10:33:31.072Z,4.65
2023-01-29T10:36:21.117Z,4.73
2023-01-29T10:38:53.275Z,4.75
2023-01-29T10:42:00.339Z,4.75
2023-01-29T10:44:54.600Z,4.80
2023-01-29T10:48:04.862Z,4.77
2023-01-29T10:51:01.931Z,4.82
2023-01-29T10:54:11.402Z,4.87
2023-01-29T10:57:17.974Z,4.91
2023-01-29T11:00:49.642Z,4.95
2023-01-29T11:03:28.820Z,4.99
2023-01-29T11:06:25.164Z,4.91
2023-01-29T11:09:12.801Z,4.98
2023-01-29T11:12:21.714Z,4.99
2023-01-29T11:15:14.341Z,4.99
2023-01-29T11:18:11.511Z,5.00
2023-01-29T11:20:46.326Z,5.09
2023-01-29T11:23:33.655Z,5.09
2023-01-29T11:26:09.345Z,5.13
2023-01-29T11:28:48.342Z,5.16
2023-01-29T11:31:35.681Z,5.18
2023-01-29T11:34:27.789Z,5.07
2023-01-29T11:37:17.197Z,5.18
2023-01-29T11:39:50.613Z,5.22
2023-01-29T11:42:23.597Z,5.23
2023-01-29T11:44:55.606Z,5.22
2023-01-29T11:47:30.365Z,5.22
2023-01-29T11:50:04.701Z,5.20
2023-01-29T11:52:42.212Z,5.22
2023-01-29T11:55:25.404Z,5.20
2023-01-29T11:58:33.719Z,5.17
2023-01-29T12:01:06.315Z,5.23
2023-01-29T12:03:44.302Z,5.24
2023-01-29T12:06:25.078Z,5.25
2023-01-29T12:09:01.000Z,5.32
2023-01-29T12:11:35.168Z,5.31
2023-01-29T12:14:30.243Z,5.31
2023-01-29T12:17:13.911Z,5.30
2023-01-29T12:19:52.580Z,5.43
2023-01-29T12:22:51.817Z,5.41
2023-01-29T12:26:05.438Z,5.48
2023-01-29T12:29:21.239Z,5.51
2023-01-29T12:32:43.174Z,5.53
2023-01-29T12:35:33.390Z,5.50
2023-01-29T12:38:31.491Z,5.49
2023-01-29T12:41:22.156Z,5.54
2023-01-29T12:44:02.876Z,5.52
2023-01-29T12:46:50.575Z,5.50
2023-01-29T12:49:33.040Z,5.48
2023-01-29T12:52:17.941Z,5.49
2023-01-29T12:55:11.304Z,5.51
2023-01-29T12:57:55.550Z,5.48
2023-01-29T13:00:33.941Z,5.54
2023-01-29T13:03:49.808Z,5.50
2023-01-29T13:06:31.390Z,5.53
2023-01-29T13:09:14.508Z,5.54
2023-01-29T13:12:01.576Z,5.51
2023-01-29T13:14:46.920Z,5.52
2023-01-29T13:17:40.709Z,5.51
2023-01-29T13:20:30.246Z,5.41
2023-01-29T13:23:21.511Z,5.51
2023-01-29T13:25:54.892Z,5.52
2023-01-29T13:28:28.165Z,5.56
2023-01-29T13:31:24.532Z,5.53
2023-01-29T13:33:56.475Z,5.54
2023-01-29T13:36:31.452Z,5.55
2023-01-29T13:39:27.228Z,5.53
2023-01-29T13:42:02.997Z,5.52
2023-01-29T13:44:40.795Z,5.50
2023-01-29T13:47:33.559Z,5.55
2023-01-29T13:50:37.699Z,5.57
2023-01-29T13:53:27.478Z,5.60
2023-01-29T13:56:33.353Z,5.63
2023-01-29T13:59:06.514Z,5.68
2023-01-29T14:01:47.247Z,5.65
2023-01-29T14:04:19.167Z,5.67
2023-01-29T14:06:59.036Z,5.70
2023-01-29T14:10:00.963Z,5.68
2023-01-29T14:12:37.595Z,5.73
2023-01-29T14:15:24.571Z,5.73
2023-01-29T14:18:08.743Z,5.73
2023-01-29T14:20:54.267Z,5.76
2023-01-29T14:23:50.814Z,5.75
2023-01-29T14:26:33.795Z,5.72
2023-01-29T14:29:35.396Z,5.73
2023-01-29T14:32:12.443Z,5.76
2023-01-29T14:35:16.703Z,5.76
2023-01-29T14:37:54.735Z,5.83
2023-01-29T14:40:30.132Z,5.89
2023-01-29T14:43:19.962Z,5.86
2023-01-29T14:45:52.156Z,5.89
2023-01-29T14:48:48.527Z,5.86
2023-01-29T14:51:25.265Z,5.93
2023-01-29T14:54:04.713Z,5.94
2023-01-29T14:56:46.870Z,5.81
2023-01-29T14:59:51.631Z,5.84
2023-01-29T15:03:01.677Z,5.87
2023-01-29T15:05:39.151Z,5.91
2023-01-29T15:08:53.541Z,5.91
2023-01-29T15:11:44.063Z,5.92
2023-01-29T15:15:05.620Z,5.89
2023-01-29T15:18:08.181Z,5.90
2023-01-29T15:20:42.591Z,5.79
2023-01-29T15:23:27.073Z,5.84
2023-01-29T15:26:06.435Z,5.85
2023-01-29T15:28:39.895Z,5.86
2023-01-29T15:31:21.260Z,5.92
2023-01-29T15:33:56.707Z,5.96
2023-01-29T15:36:31.638Z,5.92
2023-01-29T15:39:21.592Z,5.92
2023-01-29T15:42:13.854Z,5.90
2023-01-29T15:44:46.719Z,5.94
2023-01-29T15:47:19.677Z,5.93
2023-01-29T15:49:52.783Z,5.96
2023-01-29T15:52:29.969Z,5.97
2023-01-29T15:55:07.564Z,5.93
2023-01-29T15:57:42.876Z,5.91
2023-01-29T16:00:28.516Z,5.96
2023-01-29T16:03:01.623Z,5.99
2023-01-29T16:05:33.695Z,5.96
2023-01-29T16:08:07.484Z,5.98
2023-01-29T16:10:42.256Z,5.99
2023-01-29T16:13:27.584Z,5.89
2023-01-29T16:16:15.058Z,5.90
2023-01-29T16:18:59.616Z,5.92
2023-01-29T16:21:34.822Z,5.92
2023-01-29T16:24:16.022Z,5.93
2023-01-29T16:26:51.661Z,5.92
2023-01-29T16:29:31.357Z,5.75
2023-01-29T16:32:05.245Z,5.90
2023-01-29T16:34:44.266Z,5.88
2023-01-29T16:37:23.376Z,5.86
2023-01-29T16:39:56.394Z,5.76
2023-01-29T16:42:31.337Z,5.96
2023-01-29T16:45:28.018Z,5.85
2023-01-29T16:48:22.738Z,5.88
2023-01-29T16:51:17.544Z,5.82
2023-01-29T16:54:18.327Z,5.86
2023-01-29T16:56:59.927Z,5.86
2023-01-29T16:59:39.514Z,5.86
2023-01-29T17:02:44.103Z,5.83
2023-01-29T17:05:25.723Z,5.82
2023-01-29T17:08:00.233Z,5.79
2023-01-29T17:10:33.775Z,5.80
2023-01-29T17:13:22.527Z,5.77
2023-01-29T17:16:15.767Z,5.73
2023-01-29T17:18:47.953Z,5.76
2023-01-29T17:21:20.423Z,5.82
2023-01-29T17:23:53.175Z,5.76
2023-01-29T17:26:25.317Z,5.96
2023-01-29T17:28:57.365Z,5.73
2023-01-29T17:31:29.534Z,5.77
2023-01-29T17:34:01.596Z,5.78
2023-01-29T17:36:33.603Z,5.78
2023-01-29T17:39:22.660Z,5.80
2023-01-29T17:41:58.959Z,5.81
2023-01-29T17:44:30.884Z,5.58
2023-01-29T17:47:02.829Z,5.83
2023-01-29T17:49:37.289Z,5.84
2023-01-29T17:52:10.082Z,5.77
2023-01-29T17:54:42.005Z,5.80
2023-01-29T17:57:15.668Z,5.85
2023-01-29T17:59:48.555Z,5.88
2023-01-29T18:02:28.736Z,5.89
2023-01-29T18:05:01.725Z,5.88
2023-01-29T18:07:33.734Z,5.87
2023-01-29T18:10:07.287Z,5.90
2023-01-29T18:12:39.238Z,5.94
2023-01-29T18:15:12.549Z,5.92
2023-01-29T18:17:44.970Z,5.82
2023-01-29T18:20:25.716Z,5.87
2023-01-29T18:22:57.759Z,5.85
2023-01-29T18:25:31.161Z,5.85
2023-01-29T18:28:05.360Z,5.84
2023-01-29T18:30:37.459Z,5.85
2023-01-29T18:33:09.478Z,5.76
2023-01-29T18:35:41.487Z,5.85
2023-01-29T18:38:13.732Z,5.75
2023-01-29T18:40:45.710Z,5.78
2023-01-29T18:43:17.695Z,5.71
2023-01-29T18:45:49.660Z,5.70
2023-01-29T18:48:21.612Z,5.72
2023-01-29T18:50:53.607Z,5.63
2023-01-29T18:53:25.925Z,5.72
2023-01-29T18:56:06.452Z,5.73
2023-01-29T18:58:38.435Z,5.78
2023-01-29T19:01:11.934Z,5.71
2023-01-29T19:03:43.966Z,5.80
2023-01-29T19:06:15.907Z,5.80
2023-01-29T19:08:48.000Z,5.72
2023-01-29T19:11:19.904Z,5.76
2023-01-29T19:13:52.038Z,5.72
2023-01-29T19:16:24.123Z,5.71
2023-01-29T19:18:56.159Z,5.75
2023-01-29T19:21:28.539Z,5.71
2023-01-29T19:24:00.472Z,5.74
2023-01-29T19:26:34.042Z,5.72
2023-01-29T19:29:09.230Z,5.75
2023-01-29T19:31:41.466Z,5.79
2023-01-29T19:34:13.926Z,5.82
2023-01-29T19:36:45.931Z,5.84
2023-01-29T19:39:17.937Z,5.84
2023-01-29T19:41:49.972Z,5.86
2023-01-29T19:44:21.950Z,5.86
2023-01-29T19:46:54.205Z,5.83
2023-01-29T19:49:26.456Z,5.84
2023-01-29T19:51:59.031Z,5.85
2023-01-29T19:54:30.982Z,5.85
2023-01-29T19:57:02.940Z,5.85
2023-01-29T19:59:35.021Z,5.80
2023-01-29T20:02:07.106Z,5.85
2023-01-29T20:04:39.173Z,5.86
2023-01-29T20:07:11.172Z,5.78
2023-01-29T20:09:43.171Z,5.87
2023-01-29T20:12:15.991Z,5.82
2023-01-29T20:14:49.059Z,5.85
2023-01-29T20:17:21.110Z,5.86
2023-01-29T20:19:53.014Z,5.88
2023-01-29T20:22:26.871Z,5.86
2023-01-29T20:24:59.008Z,5.92
2023-01-29T20:27:30.960Z,5.93
2023-01-29T20:30:03.104Z,5.96
2023-01-29T20:32:35.432Z,5.92
2023-01-29T20:35:08.520Z,5.92
2023-01-29T20:37:40.623Z,5.91
2023-01-29T20:40:14.711Z,5.93
2023-01-29T20:42:46.846Z,5.95
2023-01-29T20:45:19.991Z,5.94
2023-01-29T20:47:51.954Z,5.86
2023-01-29T20:50:23.950Z,5.98
2023-01-29T20:52:55.916Z,5.98
2023-01-29T20:55:28.362Z,6.00
2023-01-29T20:58:06.036Z,5.97
2023-01-29T21:00:38.984Z,5.98
2023-01-29T21:03:10.920Z,5.97
2023-01-29T21:05:42.911Z,5.97
2023-01-29T21:08:14.862Z,5.98
2023-01-29T21:10:51.879Z,5.91
2023-01-29T21:13:23.912Z,6.01
2023-01-29T21:15:55.972Z,6.03
2023-01-29T21:18:28.063Z,6.03
2023-01-29T21:21:00.100Z,5.99
2023-01-29T21:23:32.075Z,6.05
2023-01-29T21:26:06.558Z,6.08
2023-01-29T21:28:38.586Z,6.05
2023-01-29T21:31:14.453Z,6.09
2023-01-29T21:33:46.514Z,6.05
2023-01-29T21:36:18.547Z,6.08
2023-01-29T21:38:50.705Z,6.13
2023-01-29T21:41:45.877Z,6.06
2023-01-29T21:44:17.824Z,6.10
2023-01-29T21:46:49.745Z,6.07
2023-01-29T21:49:22.490Z,6.19
2023-01-29T21:51:54.677Z,6.20
2023-01-29T21:54:31.113Z,6.18
2023-01-29T21:57:08.648Z,6.15
2023-01-29T21:59:40.713Z,6.08
2023-01-29T22:02:15.078Z,6.14
2023-01-29T22:04:47.239Z,6.15
2023-01-29T22:07:19.184Z,6.17
2023-01-29T22:09:51.421Z,6.20
2023-01-29T22:12:24.002Z,6.14
2023-01-29T22:14:55.948Z,6.13
2023-01-29T22:17:27.952Z,6.28
2023-01-29T22:19:59.887Z,6.25
2023-01-29T22:22:31.852Z,6.02
2023-01-29T22:25:04.946Z,6.26
2023-01-29T22:27:37.431Z,6.26
2023-01-29T22:30:10.457Z,6.26
2023-01-29T22:32:42.470Z,6.29
2023-01-29T22:35:14.646Z,6.32
2023-01-29T22:37:46.669Z,6.21
2023-01-29T22:40:19.110Z,6.34
2023-01-29T22:42:51.342Z,6.31
2023-01-29T22:45:23.353Z,6.34
2023-01-29T22:47:55.400Z,6.33
2023-01-29T22:50:27.361Z,6.37
2023-01-29T22:52:59.361Z,6.38
2023-01-29T22:55:31.334Z,6.41
2023-01-29T22:58:03.267Z,6.43
2023-01-29T23:00:35.170Z,6.40
2023-01-29T23:03:07.082Z,6.44
2023-01-29T23:05:38.965Z,6.40
2023-01-29T23:08:11.056Z,6.44
2023-01-29T23:10:43.086Z,6.42
2023-01-29T23:13:15.111Z,6.27
2023-01-29T23:15:58.104Z,6.44
2023-01-29T23:18:30.046Z,6.55
2023-01-29T23:21:02.542Z,6.55
2023-01-29T23:23:36.927Z,6.59
2023-01-29T23:26:30.483Z,6.62
2023-01-29T23:29:03.956Z,6.61
2023-01-29T23:31:35.960Z,6.63
2023-01-29T23:34:08.007Z,6.62
2023-01-29T23:36:40.201Z,6.66
2023-01-29T23:39:12.361Z,6.62
2023-01-29T23:41:44.546Z,6.72
2023-01-29T23:44:16.481Z,6.68
2023-01-29T23:46:48.557Z,6.68
2023-01-29T23:49:20.729Z,6.77
2023-01-29T23:51:52.644Z,6.77
2023-01-29T23:54:24.634Z,6.80
2023-01-29T23:56:56.544Z,6.83
2023-01-29T23:59:29.025Z,6.86
